sensor_id;sensor_type;location;lat;lon;timestamp;temperature;humidity
5786;DHT22;2919;48.630;9.000;2023-08-31T00:00:15;12.60;99.90
5786;DHT22;2919;48.630;9.000;2023-08-31T00:02:41;12.60;99.90
5786;DHT22;2919;48.630;9.000;2023-08-31T00:05:07;12.50;99.90
5786;DHT22;2919;48.630;9.000;2023-08-31T00:07:33;12.50;99.90
5786;DHT22;2919;48.630;9.000;2023-08-31T00:09:58;12.50;99.90
5786;DHT22;2919;48.630;9.000;2023-08-31T00:12:24;12.50;99.90
5786;DHT22;2919;48.630;9.000;2023-08-31T00:14:51;12.50;99.90
5786;DHT22;2919;48.630;9.000;2023-08-31T00:17:16;12.50;99.90
5786;DHT22;2919;48.630;9.000;2023-08-31T00:19:43;12.30;99.90
5786;DHT22;2919;48.630;9.000;2023-08-31T00:22:09;12.40;99.90
5786;DHT22;2919;48.630;9.000;2023-08-31T00:24:34;12.30;99.90
5786;DHT22;2919;48.630;9.000;2023-08-31T00:27:02;12.30;99.90
5786;DHT22;2919;48.630;9.000;2023-08-31T00:29:29;12.30;99.90
5786;DHT22;2919;48.630;9.000;2023-08-31T00:31:55;12.40;99.90
5786;DHT22;2919;48.630;9.000;2023-08-31T00:34:21;12.30;99.90
5786;DHT22;2919;48.630;9.000;2023-08-31T00:36:47;12.40;99.90
5786;DHT22;2919;48.630;9.000;2023-08-31T00:39:14;12.30;99.90
5786;DHT22;2919;48.630;9.000;2023-08-31T00:41:40;12.30;99.90
5786;DHT22;2919;48.630;9.000;2023-08-31T00:44:06;12.30;99.90
5786;DHT22;2919;48.630;9.000;2023-08-31T00:46:32;12.30;99.90
5786;DHT22;2919;48.630;9.000;2023-08-31T00:48:58;12.30;99.90
5786;DHT22;2919;48.630;9.000;2023-08-31T00:51:25;12.30;99.90
5786;DHT22;2919;48.630;9.000;2023-08-31T00:53:53;12.20;99.90
5786;DHT22;2919;48.630;9.000;2023-08-31T00:56:20;12.10;99.90
5786;DHT22;2919;48.630;9.000;2023-08-31T00:58:45;12.10;99.90
5786;DHT22;2919;48.630;9.000;2023-08-31T01:01:32;12.10;99.90
5786;DHT22;2919;48.630;9.000;2023-08-31T01:06:53;12.10;99.90
5786;DHT22;2919;48.630;9.000;2023-08-31T01:11:56;12.10;99.90
5786;DHT22;2919;48.630;9.000;2023-08-31T01:14:27;12.10;99.90
5786;DHT22;2919;48.630;9.000;2023-08-31T01:16:54;12.00;99.90
5786;DHT22;2919;48.630;9.000;2023-08-31T01:19:50;12.00;99.90
5786;DHT22;2919;48.630;9.000;2023-08-31T01:22:29;12.00;99.90
5786;DHT22;2919;48.630;9.000;2023-08-31T01:24:57;12.00;99.90
5786;DHT22;2919;48.630;9.000;2023-08-31T01:27:23;11.80;99.90
5786;DHT22;2919;48.630;9.000;2023-08-31T01:29:49;12.00;99.90
5786;DHT22;2919;48.630;9.000;2023-08-31T01:32:15;11.90;99.90
5786;DHT22;2919;48.630;9.000;2023-08-31T01:34:41;11.90;99.90
5786;DHT22;2919;48.630;9.000;2023-08-31T01:37:18;11.90;99.90
5786;DHT22;2919;48.630;9.000;2023-08-31T01:40:06;11.80;99.90
5786;DHT22;2919;48.630;9.000;2023-08-31T01:42:34;11.90;99.90
5786;DHT22;2919;48.630;9.000;2023-08-31T01:45:01;11.80;99.90
5786;DHT22;2919;48.630;9.000;2023-08-31T01:47:27;11.80;99.90
5786;DHT22;2919;48.630;9.000;2023-08-31T01:49:53;11.80;99.90
5786;DHT22;2919;48.630;9.000;2023-08-31T01:52:18;11.80;99.90
5786;DHT22;2919;48.630;9.000;2023-08-31T01:54:44;11.80;99.90
5786;DHT22;2919;48.630;9.000;2023-08-31T01:57:10;11.80;99.90
5786;DHT22;2919;48.630;9.000;2023-08-31T01:59:35;11.80;99.90
5786;DHT22;2919;48.630;9.000;2023-08-31T02:02:01;11.70;99.90
5786;DHT22;2919;48.630;9.000;2023-08-31T02:04:27;11.70;99.90
5786;DHT22;2919;48.630;9.000;2023-08-31T02:06:53;11.70;99.90
5786;DHT22;2919;48.630;9.000;2023-08-31T02:09:18;11.70;99.90
5786;DHT22;2919;48.630;9.000;2023-08-31T02:11:44;11.70;99.90
5786;DHT22;2919;48.630;9.000;2023-08-31T02:14:09;11.70;99.90
5786;DHT22;2919;48.630;9.000;2023-08-31T02:16:35;11.60;99.90
5786;DHT22;2919;48.630;9.000;2023-08-31T02:19:01;11.60;99.90
5786;DHT22;2919;48.630;9.000;2023-08-31T02:21:26;11.60;99.90
5786;DHT22;2919;48.630;9.000;2023-08-31T02:23:52;11.70;99.90
5786;DHT22;2919;48.630;9.000;2023-08-31T02:26:17;11.70;99.90
5786;DHT22;2919;48.630;9.000;2023-08-31T02:28:43;11.60;99.90
5786;DHT22;2919;48.630;9.000;2023-08-31T02:31:10;11.60;99.90
5786;DHT22;2919;48.630;9.000;2023-08-31T02:33:37;11.70;99.90
5786;DHT22;2919;48.630;9.000;2023-08-31T02:36:02;11.70;99.90
5786;DHT22;2919;48.630;9.000;2023-08-31T02:38:28;11.70;99.90
5786;DHT22;2919;48.630;9.000;2023-08-31T02:40:54;11.70;99.90
5786;DHT22;2919;48.630;9.000;2023-08-31T02:43:19;11.60;99.90
5786;DHT22;2919;48.630;9.000;2023-08-31T02:45:45;11.60;99.90
5786;DHT22;2919;48.630;9.000;2023-08-31T02:48:11;11.60;99.90
5786;DHT22;2919;48.630;9.000;2023-08-31T02:50:37;11.50;99.90
5786;DHT22;2919;48.630;9.000;2023-08-31T02:53:03;11.50;99.90
5786;DHT22;2919;48.630;9.000;2023-08-31T02:55:29;11.50;99.90
5786;DHT22;2919;48.630;9.000;2023-08-31T02:57:57;11.50;99.90
5786;DHT22;2919;48.630;9.000;2023-08-31T03:00:22;11.50;99.90
5786;DHT22;2919;48.630;9.000;2023-08-31T03:02:48;11.50;99.90
5786;DHT22;2919;48.630;9.000;2023-08-31T03:05:16;11.40;99.90
5786;DHT22;2919;48.630;9.000;2023-08-31T03:07:41;11.40;99.90
5786;DHT22;2919;48.630;9.000;2023-08-31T03:10:07;11.30;99.90
5786;DHT22;2919;48.630;9.000;2023-08-31T03:12:33;11.40;99.90
5786;DHT22;2919;48.630;9.000;2023-08-31T03:14:58;11.30;99.90
5786;DHT22;2919;48.630;9.000;2023-08-31T03:17:24;11.40;99.90
5786;DHT22;2919;48.630;9.000;2023-08-31T03:19:49;11.40;99.90
5786;DHT22;2919;48.630;9.000;2023-08-31T03:22:15;11.40;99.90
5786;DHT22;2919;48.630;9.000;2023-08-31T03:24:41;11.40;99.90
5786;DHT22;2919;48.630;9.000;2023-08-31T03:27:06;11.40;99.90
5786;DHT22;2919;48.630;9.000;2023-08-31T03:29:33;11.30;99.90
5786;DHT22;2919;48.630;9.000;2023-08-31T03:32:00;11.40;99.90
5786;DHT22;2919;48.630;9.000;2023-08-31T03:34:30;11.40;99.90
5786;DHT22;2919;48.630;9.000;2023-08-31T03:36:56;11.40;99.90
5786;DHT22;2919;48.630;9.000;2023-08-31T03:39:23;11.30;99.90
5786;DHT22;2919;48.630;9.000;2023-08-31T03:41:49;11.40;99.90
5786;DHT22;2919;48.630;9.000;2023-08-31T03:44:14;11.30;99.90
5786;DHT22;2919;48.630;9.000;2023-08-31T03:46:40;11.40;99.90
5786;DHT22;2919;48.630;9.000;2023-08-31T03:49:06;11.50;99.90
5786;DHT22;2919;48.630;9.000;2023-08-31T03:51:31;11.60;99.90
5786;DHT22;2919;48.630;9.000;2023-08-31T03:53:57;11.60;99.90
5786;DHT22;2919;48.630;9.000;2023-08-31T03:56:23;11.60;99.90
5786;DHT22;2919;48.630;9.000;2023-08-31T03:58:48;11.70;99.90
5786;DHT22;2919;48.630;9.000;2023-08-31T04:01:14;11.60;99.90
5786;DHT22;2919;48.630;9.000;2023-08-31T04:03:42;11.60;99.90
5786;DHT22;2919;48.630;9.000;2023-08-31T04:06:07;11.70;99.90
5786;DHT22;2919;48.630;9.000;2023-08-31T04:08:33;11.60;99.90
5786;DHT22;2919;48.630;9.000;2023-08-31T04:10:59;11.60;99.90
5786;DHT22;2919;48.630;9.000;2023-08-31T04:13:24;11.70;99.90
5786;DHT22;2919;48.630;9.000;2023-08-31T04:15:51;11.70;99.90
5786;DHT22;2919;48.630;9.000;2023-08-31T04:18:17;11.70;99.90
5786;DHT22;2919;48.630;9.000;2023-08-31T04:20:51;11.50;99.90
5786;DHT22;2919;48.630;9.000;2023-08-31T04:23:18;11.60;99.90
5786;DHT22;2919;48.630;9.000;2023-08-31T04:25:45;11.50;99.90
5786;DHT22;2919;48.630;9.000;2023-08-31T04:28:10;11.50;99.90
5786;DHT22;2919;48.630;9.000;2023-08-31T04:30:36;11.50;99.90
5786;DHT22;2919;48.630;9.000;2023-08-31T04:33:02;11.50;99.90
5786;DHT22;2919;48.630;9.000;2023-08-31T04:35:30;11.50;99.90
5786;DHT22;2919;48.630;9.000;2023-08-31T04:37:57;11.30;99.90
5786;DHT22;2919;48.630;9.000;2023-08-31T04:40:22;11.40;99.90
5786;DHT22;2919;48.630;9.000;2023-08-31T04:42:48;11.40;99.90
5786;DHT22;2919;48.630;9.000;2023-08-31T04:45:14;11.40;99.90
5786;DHT22;2919;48.630;9.000;2023-08-31T04:47:39;11.40;99.90
5786;DHT22;2919;48.630;9.000;2023-08-31T04:50:06;11.40;99.90
5786;DHT22;2919;48.630;9.000;2023-08-31T04:52:32;11.50;99.90
5786;DHT22;2919;48.630;9.000;2023-08-31T04:54:58;11.40;99.90
5786;DHT22;2919;48.630;9.000;2023-08-31T04:57:23;11.30;99.90
5786;DHT22;2919;48.630;9.000;2023-08-31T04:59:49;11.40;99.90
5786;DHT22;2919;48.630;9.000;2023-08-31T05:02:15;11.40;99.90
5786;DHT22;2919;48.630;9.000;2023-08-31T05:04:41;11.50;99.90
5786;DHT22;2919;48.630;9.000;2023-08-31T05:07:06;11.50;99.90
5786;DHT22;2919;48.630;9.000;2023-08-31T05:09:32;11.50;99.90
5786;DHT22;2919;48.630;9.000;2023-08-31T05:12:01;11.50;99.90
5786;DHT22;2919;48.630;9.000;2023-08-31T05:14:28;11.60;99.90
5786;DHT22;2919;48.630;9.000;2023-08-31T05:16:53;11.60;99.90
5786;DHT22;2919;48.630;9.000;2023-08-31T05:19:19;11.70;99.90
5786;DHT22;2919;48.630;9.000;2023-08-31T05:21:45;11.70;99.90
5786;DHT22;2919;48.630;9.000;2023-08-31T05:24:11;11.70;99.90
5786;DHT22;2919;48.630;9.000;2023-08-31T05:26:38;11.70;99.90
5786;DHT22;2919;48.630;9.000;2023-08-31T05:29:04;11.70;99.90
5786;DHT22;2919;48.630;9.000;2023-08-31T05:31:30;11.80;99.90
5786;DHT22;2919;48.630;9.000;2023-08-31T05:33:56;11.90;99.90
5786;DHT22;2919;48.630;9.000;2023-08-31T05:36:21;11.90;99.90
5786;DHT22;2919;48.630;9.000;2023-08-31T05:38:47;12.00;99.90
5786;DHT22;2919;48.630;9.000;2023-08-31T05:41:13;12.10;99.90
5786;DHT22;2919;48.630;9.000;2023-08-31T05:43:38;12.20;99.90
5786;DHT22;2919;48.630;9.000;2023-08-31T05:46:07;12.20;99.90
5786;DHT22;2919;48.630;9.000;2023-08-31T05:48:34;12.30;99.90
5786;DHT22;2919;48.630;9.000;2023-08-31T05:50:59;12.20;99.90
5786;DHT22;2919;48.630;9.000;2023-08-31T05:53:25;12.20;99.90
5786;DHT22;2919;48.630;9.000;2023-08-31T05:55:50;12.30;99.90
5786;DHT22;2919;48.630;9.000;2023-08-31T05:58:16;12.30;99.90
5786;DHT22;2919;48.630;9.000;2023-08-31T06:00:42;12.30;99.90
5786;DHT22;2919;48.630;9.000;2023-08-31T06:03:07;12.30;99.90
5786;DHT22;2919;48.630;9.000;2023-08-31T06:05:33;12.30;99.90
5786;DHT22;2919;48.630;9.000;2023-08-31T06:07:59;12.30;99.90
5786;DHT22;2919;48.630;9.000;2023-08-31T06:10:25;12.40;99.90
5786;DHT22;2919;48.630;9.000;2023-08-31T06:12:50;12.40;99.90
5786;DHT22;2919;48.630;9.000;2023-08-31T06:15:17;12.40;99.90
5786;DHT22;2919;48.630;9.000;2023-08-31T06:17:43;12.40;99.90
5786;DHT22;2919;48.630;9.000;2023-08-31T06:20:09;12.40;99.90
5786;DHT22;2919;48.630;9.000;2023-08-31T06:22:35;12.40;99.90
5786;DHT22;2919;48.630;9.000;2023-08-31T06:25:01;12.40;99.90
5786;DHT22;2919;48.630;9.000;2023-08-31T06:27:28;12.50;99.90
5786;DHT22;2919;48.630;9.000;2023-08-31T06:29:54;12.50;99.90
5786;DHT22;2919;48.630;9.000;2023-08-31T06:32:19;12.50;99.90
5786;DHT22;2919;48.630;9.000;2023-08-31T06:34:45;12.60;99.90
5786;DHT22;2919;48.630;9.000;2023-08-31T06:37:11;12.60;99.90
5786;DHT22;2919;48.630;9.000;2023-08-31T06:39:37;12.70;99.90
5786;DHT22;2919;48.630;9.000;2023-08-31T06:42:03;12.80;99.90
5786;DHT22;2919;48.630;9.000;2023-08-31T06:44:29;13.00;99.90
5786;DHT22;2919;48.630;9.000;2023-08-31T06:46:55;13.00;99.90
5786;DHT22;2919;48.630;9.000;2023-08-31T06:49:22;13.10;99.90
5786;DHT22;2919;48.630;9.000;2023-08-31T06:51:48;13.20;99.90
5786;DHT22;2919;48.630;9.000;2023-08-31T06:54:14;13.30;99.90
5786;DHT22;2919;48.630;9.000;2023-08-31T06:56:39;13.50;99.90
5786;DHT22;2919;48.630;9.000;2023-08-31T06:59:05;13.60;99.90
5786;DHT22;2919;48.630;9.000;2023-08-31T07:01:31;13.80;99.90
5786;DHT22;2919;48.630;9.000;2023-08-31T07:03:58;14.00;99.90
5786;DHT22;2919;48.630;9.000;2023-08-31T07:06:24;14.10;99.90
5786;DHT22;2919;48.630;9.000;2023-08-31T07:08:49;14.20;99.90
5786;DHT22;2919;48.630;9.000;2023-08-31T07:11:17;14.40;99.90
5786;DHT22;2919;48.630;9.000;2023-08-31T07:13:42;14.50;99.90
5786;DHT22;2919;48.630;9.000;2023-08-31T07:16:08;15.00;99.90
5786;DHT22;2919;48.630;9.000;2023-08-31T07:18:34;15.40;99.90
5786;DHT22;2919;48.630;9.000;2023-08-31T07:21:00;15.70;99.90
5786;DHT22;2919;48.630;9.000;2023-08-31T07:23:26;16.00;99.90
5786;DHT22;2919;48.630;9.000;2023-08-31T07:25:51;16.10;99.90
5786;DHT22;2919;48.630;9.000;2023-08-31T07:28:17;16.60;99.90
5786;DHT22;2919;48.630;9.000;2023-08-31T07:30:43;17.50;99.90
5786;DHT22;2919;48.630;9.000;2023-08-31T07:33:09;17.80;99.90
5786;DHT22;2919;48.630;9.000;2023-08-31T07:35:35;17.80;99.90
5786;DHT22;2919;48.630;9.000;2023-08-31T07:38:00;18.10;99.90
5786;DHT22;2919;48.630;9.000;2023-08-31T07:40:26;18.30;99.90
5786;DHT22;2919;48.630;9.000;2023-08-31T07:42:51;18.30;99.90
5786;DHT22;2919;48.630;9.000;2023-08-31T07:45:17;18.70;99.90
5786;DHT22;2919;48.630;9.000;2023-08-31T07:47:43;18.60;99.90
5786;DHT22;2919;48.630;9.000;2023-08-31T07:50:09;18.80;99.90
5786;DHT22;2919;48.630;9.000;2023-08-31T07:52:35;18.80;99.90
5786;DHT22;2919;48.630;9.000;2023-08-31T07:55:03;18.90;99.90
5786;DHT22;2919;48.630;9.000;2023-08-31T07:57:29;19.30;99.90
5786;DHT22;2919;48.630;9.000;2023-08-31T07:59:54;19.70;99.90
5786;DHT22;2919;48.630;9.000;2023-08-31T08:02:20;19.40;99.90
5786;DHT22;2919;48.630;9.000;2023-08-31T08:04:46;19.60;99.90
5786;DHT22;2919;48.630;9.000;2023-08-31T08:07:12;19.70;98.70
5786;DHT22;2919;48.630;9.000;2023-08-31T08:09:37;20.00;99.40
5786;DHT22;2919;48.630;9.000;2023-08-31T08:12:03;20.20;99.20
5786;DHT22;2919;48.630;9.000;2023-08-31T08:14:29;20.40;98.20
5786;DHT22;2919;48.630;9.000;2023-08-31T08:16:55;20.20;98.80
5786;DHT22;2919;48.630;9.000;2023-08-31T08:19:24;20.30;97.90
5786;DHT22;2919;48.630;9.000;2023-08-31T08:21:50;20.20;97.50
5786;DHT22;2919;48.630;9.000;2023-08-31T08:24:16;20.50;96.80
5786;DHT22;2919;48.630;9.000;2023-08-31T08:26:42;20.30;96.10
5786;DHT22;2919;48.630;9.000;2023-08-31T08:29:07;20.30;97.10
5786;DHT22;2919;48.630;9.000;2023-08-31T08:31:33;20.40;96.00
5786;DHT22;2919;48.630;9.000;2023-08-31T08:33:58;20.60;94.10
5786;DHT22;2919;48.630;9.000;2023-08-31T08:36:24;20.70;93.90
5786;DHT22;2919;48.630;9.000;2023-08-31T08:38:49;20.50;94.30
5786;DHT22;2919;48.630;9.000;2023-08-31T08:41:16;19.90;95.50
5786;DHT22;2919;48.630;9.000;2023-08-31T08:43:45;19.80;95.50
5786;DHT22;2919;48.630;9.000;2023-08-31T08:46:12;19.80;95.50
5786;DHT22;2919;48.630;9.000;2023-08-31T08:48:38;19.80;94.40
5786;DHT22;2919;48.630;9.000;2023-08-31T08:51:04;19.70;93.70
5786;DHT22;2919;48.630;9.000;2023-08-31T08:53:31;19.10;94.60
5786;DHT22;2919;48.630;9.000;2023-08-31T08:55:56;18.70;95.70
5786;DHT22;2919;48.630;9.000;2023-08-31T08:58:23;19.10;94.70
5786;DHT22;2919;48.630;9.000;2023-08-31T09:00:49;18.70;93.30
5786;DHT22;2919;48.630;9.000;2023-08-31T09:03:16;18.40;94.20
5786;DHT22;2919;48.630;9.000;2023-08-31T09:05:41;18.30;94.20
5786;DHT22;2919;48.630;9.000;2023-08-31T09:08:08;18.60;92.60
5786;DHT22;2919;48.630;9.000;2023-08-31T09:10:43;18.80;93.70
5786;DHT22;2919;48.630;9.000;2023-08-31T09:13:19;18.60;93.70
5786;DHT22;2919;48.630;9.000;2023-08-31T09:15:46;18.40;93.50
5786;DHT22;2919;48.630;9.000;2023-08-31T09:18:28;18.20;93.10
5786;DHT22;2919;48.630;9.000;2023-08-31T09:20:55;18.20;92.60
5786;DHT22;2919;48.630;9.000;2023-08-31T09:23:24;18.10;92.30
5786;DHT22;2919;48.630;9.000;2023-08-31T09:25:55;18.00;92.30
5786;DHT22;2919;48.630;9.000;2023-08-31T09:28:22;17.80;93.30
5786;DHT22;2919;48.630;9.000;2023-08-31T09:30:49;17.70;91.80
5786;DHT22;2919;48.630;9.000;2023-08-31T09:33:17;17.70;92.50
5786;DHT22;2919;48.630;9.000;2023-08-31T09:36:01;17.60;93.80
5786;DHT22;2919;48.630;9.000;2023-08-31T09:38:28;17.40;92.90
5786;DHT22;2919;48.630;9.000;2023-08-31T09:41:06;17.50;93.00
5786;DHT22;2919;48.630;9.000;2023-08-31T09:43:32;17.40;94.30
5786;DHT22;2919;48.630;9.000;2023-08-31T09:45:59;17.30;92.70
5786;DHT22;2919;48.630;9.000;2023-08-31T09:48:26;17.30;93.50
5786;DHT22;2919;48.630;9.000;2023-08-31T09:50:52;17.20;92.60
5786;DHT22;2919;48.630;9.000;2023-08-31T09:53:20;17.20;92.20
5786;DHT22;2919;48.630;9.000;2023-08-31T09:55:47;17.10;92.60
5786;DHT22;2919;48.630;9.000;2023-08-31T09:58:18;16.90;94.00
5786;DHT22;2919;48.630;9.000;2023-08-31T10:00:45;16.90;94.10
5786;DHT22;2919;48.630;9.000;2023-08-31T10:03:11;17.00;93.90
5786;DHT22;2919;48.630;9.000;2023-08-31T10:05:42;17.00;93.60
5786;DHT22;2919;48.630;9.000;2023-08-31T10:08:08;17.20;94.10
5786;DHT22;2919;48.630;9.000;2023-08-31T10:10:35;17.40;94.60
5786;DHT22;2919;48.630;9.000;2023-08-31T10:13:01;17.80;93.00
5786;DHT22;2919;48.630;9.000;2023-08-31T10:15:32;17.90;92.60
5786;DHT22;2919;48.630;9.000;2023-08-31T10:18:00;17.90;92.50
5786;DHT22;2919;48.630;9.000;2023-08-31T10:20:26;17.90;93.70
5786;DHT22;2919;48.630;9.000;2023-08-31T10:22:54;17.80;93.20
5786;DHT22;2919;48.630;9.000;2023-08-31T10:25:23;17.60;92.00
5786;DHT22;2919;48.630;9.000;2023-08-31T10:27:49;17.30;92.20
5786;DHT22;2919;48.630;9.000;2023-08-31T10:30:25;17.30;93.30
5786;DHT22;2919;48.630;9.000;2023-08-31T10:40:39;17.60;95.00
5786;DHT22;2919;48.630;9.000;2023-08-31T10:43:14;17.70;94.00
5786;DHT22;2919;48.630;9.000;2023-08-31T10:45:44;17.80;93.70
5786;DHT22;2919;48.630;9.000;2023-08-31T10:48:10;17.70;93.80
5786;DHT22;2919;48.630;9.000;2023-08-31T10:50:41;17.60;92.80
5786;DHT22;2919;48.630;9.000;2023-08-31T10:53:08;17.60;93.50
5786;DHT22;2919;48.630;9.000;2023-08-31T10:55:34;17.80;93.40
5786;DHT22;2919;48.630;9.000;2023-08-31T10:58:15;18.10;93.00
5786;DHT22;2919;48.630;9.000;2023-08-31T11:03:14;18.80;92.60
5786;DHT22;2919;48.630;9.000;2023-08-31T11:05:50;18.90;92.00
5786;DHT22;2919;48.630;9.000;2023-08-31T11:08:16;18.80;91.20
5786;DHT22;2919;48.630;9.000;2023-08-31T11:10:45;18.60;92.00
5786;DHT22;2919;48.630;9.000;2023-08-31T11:13:16;18.70;94.00
5786;DHT22;2919;48.630;9.000;2023-08-31T11:15:45;19.00;92.80
5786;DHT22;2919;48.630;9.000;2023-08-31T11:18:11;19.20;91.80
5786;DHT22;2919;48.630;9.000;2023-08-31T11:20:37;19.30;90.90
5786;DHT22;2919;48.630;9.000;2023-08-31T11:23:03;19.30;91.50
5786;DHT22;2919;48.630;9.000;2023-08-31T11:25:33;19.30;90.80
5786;DHT22;2919;48.630;9.000;2023-08-31T11:28:01;19.20;91.00
5786;DHT22;2919;48.630;9.000;2023-08-31T11:30:29;19.10;90.30
5786;DHT22;2919;48.630;9.000;2023-08-31T11:33:07;19.10;91.20
5786;DHT22;2919;48.630;9.000;2023-08-31T11:35:41;19.10;89.30
5786;DHT22;2919;48.630;9.000;2023-08-31T11:38:09;19.40;88.80
5786;DHT22;2919;48.630;9.000;2023-08-31T11:40:36;19.50;91.60
5786;DHT22;2919;48.630;9.000;2023-08-31T11:43:04;19.50;91.00
5786;DHT22;2919;48.630;9.000;2023-08-31T11:45:30;19.60;91.30
5786;DHT22;2919;48.630;9.000;2023-08-31T11:47:57;19.70;90.50
5786;DHT22;2919;48.630;9.000;2023-08-31T11:50:23;19.80;91.80
5786;DHT22;2919;48.630;9.000;2023-08-31T11:52:49;20.00;91.30
5786;DHT22;2919;48.630;9.000;2023-08-31T11:55:16;20.10;90.60
5786;DHT22;2919;48.630;9.000;2023-08-31T11:57:53;20.00;90.90
5786;DHT22;2919;48.630;9.000;2023-08-31T12:00:22;20.10;90.70
5786;DHT22;2919;48.630;9.000;2023-08-31T12:02:56;20.30;90.40
5786;DHT22;2919;48.630;9.000;2023-08-31T12:05:22;20.30;90.40
5786;DHT22;2919;48.630;9.000;2023-08-31T12:07:48;20.30;90.20
5786;DHT22;2919;48.630;9.000;2023-08-31T12:10:14;20.30;89.30
5786;DHT22;2919;48.630;9.000;2023-08-31T12:12:40;20.40;89.80
5786;DHT22;2919;48.630;9.000;2023-08-31T12:15:06;20.50;90.30
5786;DHT22;2919;48.630;9.000;2023-08-31T12:17:31;20.50;89.10
5786;DHT22;2919;48.630;9.000;2023-08-31T12:20:03;20.50;89.50
5786;DHT22;2919;48.630;9.000;2023-08-31T12:22:32;20.70;89.90
5786;DHT22;2919;48.630;9.000;2023-08-31T12:24:58;20.60;90.10
5786;DHT22;2919;48.630;9.000;2023-08-31T12:27:23;20.80;89.10
5786;DHT22;2919;48.630;9.000;2023-08-31T12:29:49;20.70;87.70
5786;DHT22;2919;48.630;9.000;2023-08-31T12:32:16;20.70;90.00
5786;DHT22;2919;48.630;9.000;2023-08-31T12:34:43;20.70;89.60
5786;DHT22;2919;48.630;9.000;2023-08-31T12:37:09;20.60;90.10
5786;DHT22;2919;48.630;9.000;2023-08-31T12:39:34;20.30;88.80
5786;DHT22;2919;48.630;9.000;2023-08-31T12:42:00;20.30;90.00
5786;DHT22;2919;48.630;9.000;2023-08-31T12:44:25;20.30;89.70
5786;DHT22;2919;48.630;9.000;2023-08-31T12:46:52;20.30;90.00
5786;DHT22;2919;48.630;9.000;2023-08-31T12:49:18;20.70;87.90
5786;DHT22;2919;48.630;9.000;2023-08-31T12:51:45;20.80;88.90
5786;DHT22;2919;48.630;9.000;2023-08-31T12:54:11;20.80;90.10
5786;DHT22;2919;48.630;9.000;2023-08-31T12:56:37;20.90;88.60
5786;DHT22;2919;48.630;9.000;2023-08-31T12:59:03;20.70;89.00
5786;DHT22;2919;48.630;9.000;2023-08-31T13:01:31;20.70;88.50
5786;DHT22;2919;48.630;9.000;2023-08-31T13:03:58;20.60;89.70
5786;DHT22;2919;48.630;9.000;2023-08-31T13:06:24;20.70;91.10
5786;DHT22;2919;48.630;9.000;2023-08-31T13:08:50;20.40;90.10
5786;DHT22;2919;48.630;9.000;2023-08-31T13:11:16;20.30;90.20
5786;DHT22;2919;48.630;9.000;2023-08-31T13:13:43;19.80;90.60
5786;DHT22;2919;48.630;9.000;2023-08-31T13:16:09;19.60;91.50
5786;DHT22;2919;48.630;9.000;2023-08-31T13:18:34;19.60;92.50
5786;DHT22;2919;48.630;9.000;2023-08-31T13:21:00;19.40;91.80
5786;DHT22;2919;48.630;9.000;2023-08-31T13:23:26;19.50;91.80
5786;DHT22;2919;48.630;9.000;2023-08-31T13:25:52;19.40;92.50
5786;DHT22;2919;48.630;9.000;2023-08-31T13:28:18;19.40;92.00
5786;DHT22;2919;48.630;9.000;2023-08-31T13:30:44;19.40;92.40
5786;DHT22;2919;48.630;9.000;2023-08-31T13:33:09;19.50;92.30
5786;DHT22;2919;48.630;9.000;2023-08-31T13:35:35;19.30;91.70
5786;DHT22;2919;48.630;9.000;2023-08-31T13:38:02;19.20;92.80
5786;DHT22;2919;48.630;9.000;2023-08-31T13:40:28;19.10;93.00
5786;DHT22;2919;48.630;9.000;2023-08-31T13:42:58;19.10;92.30
5786;DHT22;2919;48.630;9.000;2023-08-31T13:45:27;19.10;93.60
5786;DHT22;2919;48.630;9.000;2023-08-31T13:47:53;19.10;92.80
5786;DHT22;2919;48.630;9.000;2023-08-31T13:50:18;19.10;93.30
5786;DHT22;2919;48.630;9.000;2023-08-31T13:52:45;19.10;92.30
5786;DHT22;2919;48.630;9.000;2023-08-31T13:55:10;19.10;91.70
5786;DHT22;2919;48.630;9.000;2023-08-31T13:57:36;19.00;93.10
5786;DHT22;2919;48.630;9.000;2023-08-31T14:00:02;19.10;91.80
5786;DHT22;2919;48.630;9.000;2023-08-31T14:02:30;19.10;92.70
5786;DHT22;2919;48.630;9.000;2023-08-31T14:04:56;18.90;93.40
5786;DHT22;2919;48.630;9.000;2023-08-31T14:07:22;18.80;93.40
5786;DHT22;2919;48.630;9.000;2023-08-31T14:09:47;18.70;92.60
5786;DHT22;2919;48.630;9.000;2023-08-31T14:12:13;18.80;93.20
5786;DHT22;2919;48.630;9.000;2023-08-31T14:14:39;19.10;92.60
5786;DHT22;2919;48.630;9.000;2023-08-31T14:17:06;19.60;92.30
5786;DHT22;2919;48.630;9.000;2023-08-31T14:19:33;19.90;92.20
5786;DHT22;2919;48.630;9.000;2023-08-31T14:22:01;19.90;90.90
5786;DHT22;2919;48.630;9.000;2023-08-31T14:24:29;19.70;91.00
5786;DHT22;2919;48.630;9.000;2023-08-31T14:26:54;19.60;91.10
5786;DHT22;2919;48.630;9.000;2023-08-31T14:29:20;19.50;91.20
5786;DHT22;2919;48.630;9.000;2023-08-31T14:31:46;19.60;91.50
5786;DHT22;2919;48.630;9.000;2023-08-31T14:34:11;19.70;91.70
5786;DHT22;2919;48.630;9.000;2023-08-31T14:36:37;19.90;91.10
5786;DHT22;2919;48.630;9.000;2023-08-31T14:39:03;19.90;91.60
5786;DHT22;2919;48.630;9.000;2023-08-31T14:41:30;20.00;91.40
5786;DHT22;2919;48.630;9.000;2023-08-31T14:43:56;20.20;92.60
5786;DHT22;2919;48.630;9.000;2023-08-31T14:46:21;20.00;92.70
5786;DHT22;2919;48.630;9.000;2023-08-31T14:48:47;19.90;93.30
5786;DHT22;2919;48.630;9.000;2023-08-31T14:51:15;19.80;93.30
5786;DHT22;2919;48.630;9.000;2023-08-31T14:53:40;19.80;93.70
5786;DHT22;2919;48.630;9.000;2023-08-31T14:56:06;19.70;93.70
5786;DHT22;2919;48.630;9.000;2023-08-31T14:58:31;19.60;93.10
5786;DHT22;2919;48.630;9.000;2023-08-31T15:00:57;19.60;94.10
5786;DHT22;2919;48.630;9.000;2023-08-31T15:03:23;19.40;93.80
5786;DHT22;2919;48.630;9.000;2023-08-31T15:05:49;19.30;94.00
5786;DHT22;2919;48.630;9.000;2023-08-31T15:08:15;19.20;94.70
5786;DHT22;2919;48.630;9.000;2023-08-31T15:10:41;19.10;95.00
5786;DHT22;2919;48.630;9.000;2023-08-31T15:13:07;18.90;94.80
5786;DHT22;2919;48.630;9.000;2023-08-31T15:15:32;18.90;94.90
5786;DHT22;2919;48.630;9.000;2023-08-31T15:17:58;18.80;95.40
5786;DHT22;2919;48.630;9.000;2023-08-31T15:20:25;18.60;95.10
5786;DHT22;2919;48.630;9.000;2023-08-31T15:22:51;18.60;95.00
5786;DHT22;2919;48.630;9.000;2023-08-31T15:25:16;18.30;95.60
5786;DHT22;2919;48.630;9.000;2023-08-31T15:27:42;18.20;95.70
5786;DHT22;2919;48.630;9.000;2023-08-31T15:30:08;18.10;96.00
5786;DHT22;2919;48.630;9.000;2023-08-31T15:32:35;18.10;96.10
5786;DHT22;2919;48.630;9.000;2023-08-31T15:35:01;18.00;96.40
5786;DHT22;2919;48.630;9.000;2023-08-31T15:37:27;17.90;96.50
5786;DHT22;2919;48.630;9.000;2023-08-31T15:39:52;17.80;97.30
5786;DHT22;2919;48.630;9.000;2023-08-31T15:42:18;17.70;97.40
5786;DHT22;2919;48.630;9.000;2023-08-31T15:44:44;17.60;97.10
5786;DHT22;2919;48.630;9.000;2023-08-31T15:47:09;17.60;96.70
5786;DHT22;2919;48.630;9.000;2023-08-31T15:49:35;17.60;97.10
5786;DHT22;2919;48.630;9.000;2023-08-31T15:52:02;17.70;97.70
5786;DHT22;2919;48.630;9.000;2023-08-31T15:54:29;17.80;97.20
5786;DHT22;2919;48.630;9.000;2023-08-31T15:56:55;18.00;97.60
5786;DHT22;2919;48.630;9.000;2023-08-31T15:59:21;18.00;97.20
5786;DHT22;2919;48.630;9.000;2023-08-31T16:01:47;18.20;97.70
5786;DHT22;2919;48.630;9.000;2023-08-31T16:04:12;18.30;97.20
5786;DHT22;2919;48.630;9.000;2023-08-31T16:06:38;18.20;97.00
5786;DHT22;2919;48.630;9.000;2023-08-31T16:09:04;18.20;97.10
5786;DHT22;2919;48.630;9.000;2023-08-31T16:11:34;18.10;97.30
5786;DHT22;2919;48.630;9.000;2023-08-31T16:14:00;18.20;96.80